createdAt,value
2019-04-14T00:00:51.468Z,48.90
2019-04-14T00:03:38.921Z,49.00
2019-04-14T00:06:09.117Z,48.90
2019-04-14T00:08:39.474Z,49.00
2019-04-14T00:11:08.989Z,48.90
2019-04-14T00:13:39.282Z,49.00
2019-04-14T00:16:09.570Z,48.90
2019-04-14T00:18:40.359Z,49.10
2019-04-14T00:21:10.846Z,49.10
2019-04-14T00:23:41.299Z,49.10
2019-04-14T00:26:31.521Z,49.20
2019-04-14T00:29:02.509Z,49.80
2019-04-14T00:31:32.904Z,49.10
2019-04-14T00:34:05.091Z,49.20
2019-04-14T00:36:37.247Z,49.30
2019-04-14T00:39:27.935Z,49.30
2019-04-14T00:42:02.107Z,49.50
2019-04-14T00:44:41.015Z,49.50
2019-04-14T00:47:17.946Z,49.50
2019-04-14T00:49:48.672Z,49.70
2019-04-14T00:52:19.095Z,49.70
2019-04-14T00:54:48.473Z,49.80
2019-04-14T00:57:20.215Z,50.00
2019-04-14T00:59:50.849Z,50.60
2019-04-14T01:02:21.086Z,50.30
2019-04-14T01:04:51.334Z,50.40
2019-04-14T01:07:21.770Z,50.50
2019-04-14T01:09:51.436Z,50.70
2019-04-14T01:12:21.385Z,50.80
2019-04-14T01:14:51.792Z,51.00
2019-04-14T01:17:22.043Z,51.10
2019-04-14T01:19:52.692Z,51.20
2019-04-14T01:22:22.855Z,51.50
2019-04-14T01:24:53.264Z,51.80
2019-04-14T01:27:23.454Z,51.70
2019-04-14T01:29:53.804Z,51.80
2019-04-14T01:32:24.090Z,52.10
2019-04-14T01:34:54.363Z,52.30
2019-04-14T01:37:25.061Z,52.50
2019-04-14T01:39:54.615Z,52.70
2019-04-14T01:42:24.582Z,52.80
2019-04-14T01:44:54.691Z,52.80
2019-04-14T01:47:24.911Z,53.50
2019-04-14T01:49:55.185Z,53.30
2019-04-14T01:52:32.514Z,53.60
2019-04-14T01:55:04.736Z,53.90
2019-04-14T01:57:37.080Z,54.20
2019-04-14T02:00:16.326Z,54.20
2019-04-14T02:02:46.523Z,54.20
2019-04-14T02:05:16.797Z,54.50
2019-04-14T02:07:47.223Z,54.70
2019-04-14T02:10:17.270Z,55.10
2019-04-14T02:12:47.359Z,55.20
2019-04-14T02:15:17.731Z,55.40
2019-04-14T02:17:48.157Z,55.50
2019-04-14T02:20:18.487Z,55.40
2019-04-14T02:22:48.530Z,56.10
2019-04-14T02:25:18.841Z,56.30
2019-04-14T02:27:49.297Z,56.10
2019-04-14T02:30:24.786Z,56.40
2019-04-14T02:33:24.039Z,56.60
2019-04-14T02:36:05.628Z,56.90
2019-04-14T02:38:33.495Z,56.90
2019-04-14T02:40:53.295Z,56.80
2019-04-14T02:43:27.578Z,57.20
2019-04-14T02:46:02.335Z,57.40
2019-04-14T02:50:56.121Z,57.80
2019-04-14T02:53:30.820Z,57.80
2019-04-14T02:56:05.438Z,57.90
2019-04-14T02:58:46.285Z,57.90
2019-04-14T03:01:09.912Z,57.90
2019-04-14T03:03:33.555Z,57.90
2019-04-14T03:08:55.053Z,58.40
2019-04-14T03:11:09.382Z,58.40
2019-04-14T03:13:35.140Z,58.40
2019-04-14T03:18:47.184Z,59.00
2019-04-14T03:21:29.777Z,59.20
2019-04-14T03:26:46.353Z,59.30
2019-04-14T03:29:20.934Z,59.30
2019-04-14T03:34:43.265Z,59.60
2019-04-14T03:39:31.743Z,60.00
2019-04-14T03:42:01.276Z,60.00
2019-04-14T03:52:07.963Z,60.60
2019-04-14T03:54:25.795Z,60.70
2019-04-14T03:56:51.366Z,60.80
2019-04-14T03:59:21.891Z,60.90
2019-04-14T04:01:52.239Z,60.90
2019-04-14T04:04:22.727Z,61.20
2019-04-14T04:06:53.175Z,61.30
2019-04-14T04:09:24.284Z,61.50
2019-04-14T04:11:54.138Z,62.30
2019-04-14T04:14:24.622Z,61.50
2019-04-14T04:16:59.472Z,61.60
2019-04-14T04:19:33.933Z,61.90
2019-04-14T04:22:15.061Z,62.00
2019-04-14T04:24:50.006Z,62.40
2019-04-14T04:27:31.453Z,62.40
2019-04-14T04:30:03.686Z,62.20
2019-04-14T04:32:36.181Z,62.30
2019-04-14T04:35:11.358Z,62.50
2019-04-14T04:37:49.734Z,62.80
2019-04-14T04:40:22.310Z,63.10
2019-04-14T04:42:52.658Z,63.30
2019-04-14T04:45:23.434Z,62.40
2019-04-14T04:47:53.500Z,63.70
2019-04-14T04:50:23.895Z,62.10
2019-04-14T04:52:54.023Z,63.80
2019-04-14T04:55:24.254Z,62.20
2019-04-14T04:57:54.543Z,63.60
2019-04-14T05:00:24.439Z,63.40
2019-04-14T05:02:54.964Z,63.60
2019-04-14T05:06:06.763Z,64.30
2019-04-14T05:08:39.115Z,64.50
2019-04-14T05:11:10.745Z,64.20
2019-04-14T05:13:42.357Z,64.80
2019-04-14T05:16:12.790Z,64.60
2019-04-14T05:18:42.519Z,64.60
2019-04-14T05:21:12.733Z,65.10
2019-04-14T05:23:45.369Z,64.90
2019-04-14T05:26:15.554Z,65.60
2019-04-14T05:28:46.011Z,65.10
2019-04-14T05:31:16.485Z,65.50
2019-04-14T05:33:46.880Z,65.70
2019-04-14T05:36:17.086Z,65.80
2019-04-14T05:38:47.435Z,66.30
2019-04-14T05:41:17.906Z,65.80
2019-04-14T05:43:53.712Z,66.00
2019-04-14T05:46:19.032Z,66.40
2019-04-14T05:48:49.226Z,66.20
2019-04-14T05:51:21.341Z,66.50
2019-04-14T05:53:50.155Z,66.50
2019-04-14T05:56:20.621Z,67.00
2019-04-14T05:58:51.439Z,66.90
2019-04-14T06:01:20.971Z,67.20
2019-04-14T06:03:50.351Z,67.10
2019-04-14T06:06:19.998Z,68.10
2019-04-14T06:08:49.388Z,67.20
2019-04-14T06:11:19.067Z,66.80
2019-04-14T06:13:48.445Z,67.30
2019-04-14T06:16:17.836Z,67.20
2019-04-14T06:18:47.208Z,67.20
2019-04-14T06:21:16.870Z,67.40
2019-04-14T06:23:46.617Z,67.20
2019-04-14T06:26:15.995Z,67.10
2019-04-14T06:28:45.367Z,67.30
2019-04-14T06:31:16.402Z,67.40
2019-04-14T06:33:56.311Z,68.00
2019-04-14T06:36:43.886Z,68.40
2019-04-14T06:39:17.615Z,67.40
2019-04-14T06:41:46.267Z,67.50
2019-04-14T06:44:15.864Z,66.50
2019-04-14T06:46:45.235Z,67.50
2019-04-14T06:49:14.611Z,67.80
2019-04-14T06:51:43.989Z,67.80
2019-04-14T06:54:13.351Z,67.50
2019-04-14T06:56:42.718Z,67.80
2019-04-14T06:59:12.126Z,67.70
2019-04-14T07:01:46.382Z,68.60
2019-04-14T07:04:15.657Z,68.90
2019-04-14T07:06:45.062Z,68.70
2019-04-14T07:09:15.479Z,68.90
2019-04-14T07:11:44.866Z,68.90
2019-04-14T07:14:14.244Z,68.90
2019-04-14T07:16:43.635Z,69.00
2019-04-14T07:19:12.994Z,69.10
2019-04-14T07:21:42.369Z,69.20
2019-04-14T07:24:11.739Z,69.60
2019-04-14T07:26:41.356Z,70.00
2019-04-14T07:29:11.028Z,70.10
2019-04-14T07:31:44.947Z,70.70
2019-04-14T07:34:24.016Z,70.60
2019-04-14T07:37:01.042Z,69.70
2019-04-14T07:39:41.056Z,70.10
2019-04-14T07:42:12.062Z,69.90
2019-04-14T07:44:59.172Z,70.40
2019-04-14T07:47:30.481Z,70.20
2019-04-14T07:50:17.834Z,70.00
2019-04-14T07:52:48.849Z,70.10
2019-04-14T07:55:34.838Z,70.40
2019-04-14T07:58:05.923Z,70.50
2019-04-14T08:00:39.592Z,69.80
2019-04-14T08:03:10.637Z,70.30
2019-04-14T08:05:41.654Z,70.10
2019-04-14T08:08:11.023Z,70.50
2019-04-14T08:10:40.479Z,70.40
2019-04-14T08:13:11.231Z,70.20
2019-04-14T08:15:40.921Z,70.40
2019-04-14T08:18:10.389Z,70.30
2019-04-14T08:20:40.588Z,70.20
2019-04-14T08:23:09.998Z,70.10
2019-04-14T08:25:39.396Z,70.10
2019-04-14T08:28:08.753Z,70.40
2019-04-14T08:30:38.130Z,70.40
2019-04-14T08:33:07.862Z,70.10
2019-04-14T08:35:37.333Z,70.40
2019-04-14T08:38:06.685Z,70.50
2019-04-14T08:40:36.348Z,70.40
2019-04-14T08:43:10.347Z,70.50
2019-04-14T08:45:46.803Z,70.60
2019-04-14T08:48:27.983Z,70.40
2019-04-14T08:51:04.610Z,70.40
2019-04-14T08:53:44.767Z,70.60
2019-04-14T08:59:10.729Z,70.40
2019-04-14T09:02:26.450Z,68.80
2019-04-14T09:04:57.455Z,70.00
2019-04-14T09:07:31.312Z,70.10
2019-04-14T09:10:17.615Z,70.20
2019-04-14T09:12:58.064Z,70.00
2019-04-14T09:15:27.655Z,70.20
2019-04-14T09:17:58.154Z,70.20
2019-04-14T09:20:27.566Z,70.30
2019-04-14T09:22:56.950Z,70.00
2019-04-14T09:25:26.324Z,69.60
2019-04-14T09:27:55.699Z,69.60
2019-04-14T09:30:25.162Z,69.50
2019-04-14T09:32:54.544Z,69.00
2019-04-14T09:35:23.930Z,68.60
2019-04-14T09:37:53.514Z,68.50
2019-04-14T09:40:22.977Z,68.70
2019-04-14T09:42:52.681Z,68.50
2019-04-14T09:45:22.164Z,68.40
2019-04-14T09:47:51.798Z,68.40
2019-04-14T09:50:21.178Z,68.60
2019-04-14T09:52:50.912Z,68.60
2019-04-14T09:55:20.294Z,68.70
2019-04-14T09:57:49.686Z,68.60
2019-04-14T10:00:19.660Z,68.40
2019-04-14T10:02:49.058Z,68.50
2019-04-14T10:05:18.467Z,68.10
2019-04-14T10:07:47.869Z,68.30
2019-04-14T10:10:17.245Z,68.30
2019-04-14T10:12:46.620Z,68.30
2019-04-14T10:15:16.087Z,68.60
2019-04-14T10:17:46.731Z,68.60
2019-04-14T10:20:16.107Z,68.30
2019-04-14T10:22:45.872Z,68.20
2019-04-14T10:25:15.281Z,68.20
2019-04-14T10:27:44.676Z,68.40
2019-04-14T10:30:14.382Z,67.70
2019-04-14T10:32:43.782Z,67.90
2019-04-14T10:35:13.195Z,67.30
2019-04-14T10:37:42.567Z,68.00
2019-04-14T10:40:12.032Z,68.20
2019-04-14T10:42:41.412Z,68.20
2019-04-14T10:45:11.593Z,68.50
2019-04-14T10:47:40.975Z,68.20
2019-04-14T10:50:10.964Z,68.30
2019-04-14T10:52:40.358Z,68.70
2019-04-14T10:55:10.620Z,68.30
2019-04-14T10:57:40.007Z,69.40
2019-04-14T11:00:12.316Z,68.50
2019-04-14T11:02:41.703Z,68.40
2019-04-14T11:05:11.309Z,68.50
2019-04-14T11:07:40.712Z,68.40
2019-04-14T11:10:11.790Z,68.30
2019-04-14T11:12:41.164Z,68.50
2019-04-14T11:15:11.367Z,68.40
2019-04-14T11:17:40.753Z,68.30
2019-04-14T11:20:11.371Z,68.60
2019-04-14T11:22:40.862Z,68.60
2019-04-14T11:25:10.739Z,68.40
2019-04-14T11:27:40.128Z,68.20
2019-04-14T11:30:11.470Z,68.20
2019-04-14T11:32:45.189Z,68.50
2019-04-14T11:35:31.140Z,68.00
2019-04-14T11:38:07.841Z,67.50
2019-04-14T11:40:57.155Z,66.80
2019-04-14T11:43:26.514Z,66.70
2019-04-14T11:45:55.907Z,66.50
2019-04-14T11:48:25.396Z,66.00
2019-04-14T11:50:54.784Z,65.60
2019-04-14T11:53:24.157Z,65.30
2019-04-14T11:55:53.534Z,64.90
2019-04-14T11:58:22.918Z,64.40
2019-04-14T12:01:10.802Z,63.90
2019-04-14T12:03:57.902Z,63.50
2019-04-14T12:06:43.827Z,63.30
2019-04-14T12:09:21.030Z,63.10
2019-04-14T12:11:50.410Z,62.70
2019-04-14T12:14:19.780Z,62.70
2019-04-14T12:16:49.172Z,62.30
2019-04-14T12:19:18.908Z,61.40
2019-04-14T12:21:48.592Z,60.90
2019-04-14T12:24:17.974Z,60.80
2019-04-14T12:26:47.438Z,60.60
2019-04-14T12:29:16.892Z,59.90
2019-04-14T12:31:46.560Z,59.70
2019-04-14T12:34:18.245Z,59.50
2019-04-14T12:36:48.693Z,59.10
2019-04-14T12:39:24.402Z,59.30
2019-04-14T12:41:58.258Z,58.90
2019-04-14T12:44:41.137Z,58.70
2019-04-14T12:47:21.344Z,59.10
2019-04-14T12:49:55.210Z,58.40
2019-04-14T12:52:27.302Z,58.00
2019-04-14T12:54:56.997Z,58.50
2019-04-14T12:57:30.798Z,58.10
2019-04-14T13:00:00.181Z,58.10
2019-04-14T13:02:33.886Z,58.10
2019-04-14T13:05:03.349Z,57.90
2019-04-14T13:07:32.667Z,57.70
2019-04-14T13:10:02.063Z,57.40
2019-04-14T13:12:31.481Z,57.40
2019-04-14T13:15:02.819Z,57.20
2019-04-14T13:17:31.962Z,57.20
2019-04-14T13:20:01.871Z,57.00
2019-04-14T13:22:39.390Z,57.00
2019-04-14T13:25:09.442Z,56.70
2019-04-14T13:27:38.900Z,56.80
2019-04-14T13:30:12.360Z,56.60
2019-04-14T13:32:41.732Z,56.40
2019-04-14T13:35:12.259Z,56.10
2019-04-14T13:37:41.626Z,56.00
2019-04-14T13:40:11.914Z,55.80
2019-04-14T13:42:41.299Z,55.30
2019-04-14T13:45:11.104Z,55.10
2019-04-14T13:47:40.778Z,55.00
2019-04-14T13:50:10.217Z,54.50
2019-04-14T13:52:46.588Z,54.30
2019-04-14T13:55:11.056Z,53.90
2019-04-14T13:57:40.881Z,53.60
2019-04-14T14:00:14.176Z,53.60
2019-04-14T14:02:44.309Z,53.00
2019-04-14T14:05:13.895Z,52.80
2019-04-14T14:07:43.259Z,52.50
2019-04-14T14:10:13.397Z,52.30
2019-04-14T14:13:00.952Z,52.40
2019-04-14T14:15:48.539Z,52.30
2019-04-14T14:18:19.619Z,52.10
2019-04-14T14:20:50.629Z,51.90
2019-04-14T14:23:22.006Z,51.60
2019-04-14T14:25:53.071Z,51.70
2019-04-14T14:28:22.469Z,51.60
2019-04-14T14:30:51.823Z,51.40
2019-04-14T14:33:21.489Z,51.20
2019-04-14T14:35:50.906Z,51.40
2019-04-14T14:38:20.271Z,51.50
2019-04-14T14:40:49.660Z,51.50
2019-04-14T14:43:19.030Z,51.40
2019-04-14T14:45:55.707Z,51.70
2019-04-14T14:48:27.326Z,51.80
2019-04-14T14:51:05.440Z,51.80
2019-04-14T14:53:34.804Z,51.90
2019-04-14T14:56:04.252Z,52.10
2019-04-14T14:58:33.858Z,52.30
2019-04-14T15:01:05.001Z,52.40
2019-04-14T15:03:34.791Z,52.30
2019-04-14T15:06:04.338Z,51.80
2019-04-14T15:08:33.687Z,51.80
2019-04-14T15:11:04.382Z,51.20
2019-04-14T15:13:34.056Z,51.30
2019-04-14T15:16:03.437Z,50.80
2019-04-14T15:18:32.818Z,50.20
2019-04-14T15:21:02.527Z,50.00
2019-04-14T15:23:31.896Z,50.10
2019-04-14T15:26:02.186Z,50.30
2019-04-14T15:28:31.559Z,50.10
2019-04-14T15:31:00.930Z,49.80
2019-04-14T15:33:30.308Z,49.60
2019-04-14T15:35:59.680Z,49.50
2019-04-14T15:38:29.056Z,49.50
2019-04-14T15:40:58.438Z,49.50
2019-04-14T15:43:27.815Z,49.20
2019-04-14T15:45:57.188Z,49.20
2019-04-14T15:48:27.180Z,48.80
2019-04-14T15:50:56.559Z,48.60
2019-04-14T15:53:37.416Z,48.60
2019-04-14T15:55:57.769Z,48.60
2019-04-14T15:58:28.772Z,48.50
2019-04-14T16:00:59.777Z,48.50
2019-04-14T16:03:31.081Z,48.80
2019-04-14T16:06:02.163Z,48.80
2019-04-14T16:08:45.097Z,48.80
2019-04-14T16:11:19.055Z,48.90
2019-04-14T16:13:52.740Z,49.00
2019-04-14T16:16:29.521Z,49.10
2019-04-14T16:19:00.529Z,49.10
2019-04-14T16:21:29.903Z,49.20
2019-04-14T16:23:59.719Z,49.20
2019-04-14T16:26:33.843Z,49.20
2019-04-14T16:29:07.958Z,49.30
2019-04-14T16:31:47.877Z,49.50
2019-04-14T16:34:18.927Z,50.00
2019-04-14T16:36:49.896Z,49.40
2019-04-14T16:39:19.265Z,49.50
2019-04-14T16:41:49.415Z,49.60
2019-04-14T16:44:18.855Z,49.60
2019-04-14T16:46:48.602Z,49.70
2019-04-14T16:49:17.983Z,49.50
2019-04-14T16:52:00.839Z,49.50
2019-04-14T16:54:34.896Z,49.60
2019-04-14T16:57:11.862Z,49.60
2019-04-14T16:59:41.499Z,49.70
2019-04-14T17:02:11.508Z,49.70
2019-04-14T17:04:40.930Z,49.80
2019-04-14T17:07:10.303Z,49.80
2019-04-14T17:09:39.694Z,49.80
2019-04-14T17:12:09.078Z,49.70
2019-04-14T17:14:40.078Z,49.70
2019-04-14T17:17:14.330Z,49.70
2019-04-14T17:19:57.316Z,49.70
2019-04-14T17:22:43.313Z,50.10
2019-04-14T17:25:14.401Z,49.40
2019-04-14T17:28:01.756Z,49.30
2019-04-14T17:30:32.779Z,49.10
2019-04-14T17:33:04.859Z,49.30
2019-04-14T17:35:42.200Z,49.20
2019-04-14T17:38:15.602Z,49.10
2019-04-14T17:40:46.617Z,49.10
2019-04-14T17:43:17.632Z,49.10
2019-04-14T17:45:54.373Z,49.10
2019-04-14T17:48:25.380Z,49.20
2019-04-14T17:50:56.796Z,48.90
2019-04-14T17:53:33.673Z,49.20
2019-04-14T17:56:07.515Z,49.20
2019-04-14T17:58:54.651Z,49.40
2019-04-14T18:01:28.279Z,49.50
2019-04-14T18:04:02.226Z,49.50
2019-04-14T18:06:36.474Z,49.50
2019-04-14T18:09:08.507Z,50.20
2019-04-14T18:11:48.329Z,50.00
2019-04-14T18:14:35.807Z,49.80
2019-04-14T18:17:06.899Z,50.00
2019-04-14T18:19:55.997Z,50.10
2019-04-14T18:22:25.736Z,50.30
2019-04-14T18:24:55.129Z,50.50
2019-04-14T18:27:24.510Z,50.70
2019-04-14T18:29:55.528Z,50.80
2019-04-14T18:32:38.533Z,51.00
2019-04-14T18:35:17.149Z,51.00
2019-04-14T18:37:48.163Z,51.10
2019-04-14T18:40:25.296Z,51.10
2019-04-14T18:43:12.611Z,51.20
2019-04-14T18:45:46.554Z,51.40
2019-04-14T18:48:26.532Z,51.40
2019-04-14T18:51:15.626Z,51.50
2019-04-14T18:53:55.636Z,51.50
2019-04-14T18:56:39.367Z,51.50
2019-04-14T18:59:26.734Z,51.50
2019-04-14T19:01:57.307Z,51.50
2019-04-14T19:04:26.674Z,51.60
2019-04-14T19:06:56.049Z,51.60
2019-04-14T19:09:25.429Z,51.60
2019-04-14T19:12:08.396Z,51.60
2019-04-14T19:14:39.765Z,51.60
2019-04-14T19:17:10.790Z,51.70
2019-04-14T19:19:41.799Z,51.70
2019-04-14T19:22:11.175Z,51.60
2019-04-14T19:24:40.546Z,51.50
2019-04-14T19:27:09.927Z,51.50
2019-04-14T19:29:39.322Z,51.60
2019-04-14T19:32:08.689Z,51.50
2019-04-14T19:34:38.106Z,51.50
2019-04-14T19:37:07.941Z,51.50
2019-04-14T19:39:37.303Z,51.50
2019-04-14T19:42:06.673Z,51.40
2019-04-14T19:44:36.314Z,51.50
2019-04-14T19:47:05.679Z,51.40
2019-04-14T19:49:35.045Z,51.30
2019-04-14T19:52:04.426Z,51.40
2019-04-14T19:54:34.132Z,51.30
2019-04-14T19:57:03.499Z,51.40
2019-04-14T19:59:33.299Z,51.40
2019-04-14T20:02:02.671Z,51.40
2019-04-14T20:04:32.380Z,51.40
2019-04-14T20:07:01.737Z,51.50
2019-04-14T20:09:31.100Z,51.50
2019-04-14T20:12:00.483Z,51.50
2019-04-14T20:14:29.867Z,51.50
2019-04-14T20:17:05.911Z,51.50
2019-04-14T20:19:53.008Z,51.50
2019-04-14T20:22:26.418Z,51.50
2019-04-14T20:25:00.117Z,51.50
2019-04-14T20:27:40.102Z,51.50
2019-04-14T20:30:20.139Z,51.50
2019-04-14T20:32:50.491Z,51.60
2019-04-14T20:35:19.857Z,51.70
2019-04-14T20:37:49.454Z,51.50
2019-04-14T20:40:19.328Z,51.60
2019-04-14T20:42:48.707Z,51.60
2019-04-14T20:45:18.409Z,51.50
2019-04-14T20:47:47.850Z,51.60
2019-04-14T20:50:17.163Z,51.60
2019-04-14T20:52:46.536Z,51.50
2019-04-14T20:55:15.949Z,51.50
2019-04-14T20:57:45.310Z,51.50
2019-04-14T21:00:14.997Z,51.40
2019-04-14T21:03:02.772Z,51.50
2019-04-14T21:05:39.503Z,51.50
2019-04-14T21:08:16.220Z,51.40
2019-04-14T21:10:59.200Z,51.50
2019-04-14T21:13:30.214Z,51.50
2019-04-14T21:16:12.170Z,51.50
2019-04-14T21:18:49.624Z,51.50
2019-04-14T21:21:26.095Z,51.50
2019-04-14T21:24:08.877Z,51.50
2019-04-14T21:26:42.538Z,51.50
2019-04-14T21:29:25.463Z,51.50
2019-04-14T21:31:59.438Z,51.60
2019-04-14T21:34:36.917Z,51.60
2019-04-14T21:37:13.791Z,51.60
2019-04-14T21:39:45.341Z,51.60
2019-04-14T21:42:15.276Z,51.60
2019-04-14T21:44:44.652Z,51.70
2019-04-14T21:47:14.056Z,51.70
2019-04-14T21:49:43.413Z,51.70
2019-04-14T21:52:14.438Z,51.80
2019-04-14T21:54:44.752Z,51.80
2019-04-14T21:57:15.759Z,51.70
2019-04-14T21:59:58.741Z,51.80
2019-04-14T22:02:46.195Z,51.80
2019-04-14T22:05:17.243Z,51.80
2019-04-14T22:07:50.912Z,51.90
2019-04-14T22:10:21.928Z,52.00
2019-04-14T22:12:52.024Z,51.90
2019-04-14T22:15:21.590Z,52.00
2019-04-14T22:17:50.929Z,52.00
2019-04-14T22:20:20.309Z,52.00
2019-04-14T22:22:49.850Z,52.00
2019-04-14T22:25:19.201Z,52.00
2019-04-14T22:27:48.595Z,52.00
2019-04-14T22:30:20.459Z,52.00
2019-04-14T22:32:49.829Z,51.90
2019-04-14T22:35:19.628Z,51.80
2019-04-14T22:37:48.999Z,51.80
2019-04-14T22:40:18.518Z,51.80
2019-04-14T22:42:49.395Z,51.80
2019-04-14T22:45:18.792Z,51.30
2019-04-14T22:47:48.156Z,51.70
2019-04-14T22:50:17.537Z,51.20
2019-04-14T22:52:46.899Z,51.70
2019-04-14T22:55:16.265Z,51.70
2019-04-14T22:57:46.405Z,51.60
2019-04-14T23:00:22.017Z,51.50
2019-04-14T23:03:01.861Z,51.10
2019-04-14T23:05:32.859Z,51.50
2019-04-14T23:08:03.867Z,51.50
2019-04-14T23:10:34.893Z,51.40
2019-04-14T23:13:08.619Z,51.30
2019-04-14T23:15:56.679Z,51.30
2019-04-14T23:18:33.516Z,51.30
2019-04-14T23:21:20.934Z,51.30
2019-04-14T23:23:51.931Z,51.30
2019-04-14T23:26:21.315Z,51.30
2019-04-14T23:28:50.705Z,51.30
2019-04-14T23:31:20.450Z,51.30
2019-04-14T23:33:50.204Z,51.30
2019-04-14T23:36:19.949Z,51.30
2019-04-14T23:38:49.315Z,51.30
2019-04-14T23:41:18.682Z,51.30
2019-04-14T23:43:48.957Z,51.20
2019-04-14T23:46:18.396Z,51.20
2019-04-14T23:48:47.778Z,51.20
2019-04-14T23:51:17.143Z,51.20
2019-04-14T23:53:46.545Z,51.20
2019-04-14T23:56:15.904Z,51.20
2019-04-14T23:58:45.587Z,51.20
